sensor_id;sensor_type;location;lat;lon;timestamp;P1;durP1;ratioP1;P2;durP2;ratioP2
7348;SDS011;13010;-33.424;-70.614;2023-02-22T00:00:14;13.90;;;2.03;;
7348;SDS011;13010;-33.424;-70.614;2023-02-22T00:03:09;6.23;;;1.87;;
7348;SDS011;13010;-33.424;-70.614;2023-02-22T00:06:01;9.68;;;2.20;;
7348;SDS011;13010;-33.424;-70.614;2023-02-22T00:08:52;20.13;;;3.07;;
7348;SDS011;13010;-33.424;-70.614;2023-02-22T00:11:44;10.40;;;2.70;;
7348;SDS011;13010;-33.424;-70.614;2023-02-22T00:14:33;9.90;;;2.57;;
7348;SDS011;13010;-33.424;-70.614;2023-02-22T00:17:23;7.23;;;3.00;;
7348;SDS011;13010;-33.424;-70.614;2023-02-22T00:20:15;10.83;;;2.90;;
7348;SDS011;13010;-33.424;-70.614;2023-02-22T00:23:07;33.23;;;3.17;;
7348;SDS011;13010;-33.424;-70.614;2023-02-22T00:26:02;8.40;;;3.40;;
7348;SDS011;13010;-33.424;-70.614;2023-02-22T00:28:53;13.87;;;4.57;;
7348;SDS011;13010;-33.424;-70.614;2023-02-22T00:31:42;11.90;;;4.85;;
7348;SDS011;13010;-33.424;-70.614;2023-02-22T00:34:31;11.50;;;4.70;;
7348;SDS011;13010;-33.424;-70.614;2023-02-22T00:37:22;8.63;;;3.10;;
7348;SDS011;13010;-33.424;-70.614;2023-02-22T00:40:11;7.33;;;3.23;;
7348;SDS011;13010;-33.424;-70.614;2023-02-22T00:43:03;9.40;;;3.67;;
7348;SDS011;13010;-33.424;-70.614;2023-02-22T00:45:52;20.07;;;4.57;;
7348;SDS011;13010;-33.424;-70.614;2023-02-22T00:48:42;14.13;;;5.00;;
7348;SDS011;13010;-33.424;-70.614;2023-02-22T00:51:31;17.43;;;5.10;;
7348;SDS011;13010;-33.424;-70.614;2023-02-22T00:54:22;15.20;;;6.40;;
7348;SDS011;13010;-33.424;-70.614;2023-02-22T00:57:10;19.97;;;6.60;;
7348;SDS011;13010;-33.424;-70.614;2023-02-22T00:59:59;11.07;;;6.17;;
7348;SDS011;13010;-33.424;-70.614;2023-02-22T01:02:55;15.70;;;6.80;;
7348;SDS011;13010;-33.424;-70.614;2023-02-22T01:05:44;14.00;;;6.93;;
7348;SDS011;13010;-33.424;-70.614;2023-02-22T01:08:33;10.97;;;6.77;;
7348;SDS011;13010;-33.424;-70.614;2023-02-22T01:11:25;37.67;;;6.70;;
7348;SDS011;13010;-33.424;-70.614;2023-02-22T01:14:15;9.70;;;7.13;;
7348;SDS011;13010;-33.424;-70.614;2023-02-22T01:17:04;12.40;;;6.70;;
7348;SDS011;13010;-33.424;-70.614;2023-02-22T01:19:54;12.33;;;6.13;;
7348;SDS011;13010;-33.424;-70.614;2023-02-22T01:22:43;9.60;;;6.67;;
7348;SDS011;13010;-33.424;-70.614;2023-02-22T01:25:34;10.60;;;6.90;;
7348;SDS011;13010;-33.424;-70.614;2023-02-22T01:28:25;22.53;;;7.27;;
7348;SDS011;13010;-33.424;-70.614;2023-02-22T01:31:14;9.23;;;6.00;;
7348;SDS011;13010;-33.424;-70.614;2023-02-22T01:34:04;9.83;;;6.10;;
7348;SDS011;13010;-33.424;-70.614;2023-02-22T01:36:53;19.83;;;8.70;;
7348;SDS011;13010;-33.424;-70.614;2023-02-22T01:39:42;19.70;;;8.53;;
7348;SDS011;13010;-33.424;-70.614;2023-02-22T01:42:31;14.20;;;7.00;;
7348;SDS011;13010;-33.424;-70.614;2023-02-22T01:48:44;15.77;;;7.20;;
7348;SDS011;13010;-33.424;-70.614;2023-02-22T01:51:36;19.83;;;6.27;;
7348;SDS011;13010;-33.424;-70.614;2023-02-22T01:54:28;18.17;;;7.17;;
7348;SDS011;13010;-33.424;-70.614;2023-02-22T01:57:21;11.43;;;6.20;;
7348;SDS011;13010;-33.424;-70.614;2023-02-22T02:00:14;18.33;;;7.70;;
7348;SDS011;13010;-33.424;-70.614;2023-02-22T02:03:07;13.67;;;6.87;;
7348;SDS011;13010;-33.424;-70.614;2023-02-22T02:06:00;13.90;;;7.10;;
7348;SDS011;13010;-33.424;-70.614;2023-02-22T02:08:53;13.53;;;7.67;;
7348;SDS011;13010;-33.424;-70.614;2023-02-22T02:11:46;13.43;;;7.90;;
7348;SDS011;13010;-33.424;-70.614;2023-02-22T02:14:36;13.80;;;9.33;;
7348;SDS011;13010;-33.424;-70.614;2023-02-22T02:17:27;22.80;;;10.50;;
7348;SDS011;13010;-33.424;-70.614;2023-02-22T02:20:21;19.30;;;12.40;;
7348;SDS011;13010;-33.424;-70.614;2023-02-22T02:30:01;15.30;;;9.97;;
7348;SDS011;13010;-33.424;-70.614;2023-02-22T02:33:12;24.90;;;10.53;;
7348;SDS011;13010;-33.424;-70.614;2023-02-22T02:36:09;19.83;;;9.83;;
7348;SDS011;13010;-33.424;-70.614;2023-02-22T02:39:05;14.43;;;8.00;;
7348;SDS011;13010;-33.424;-70.614;2023-02-22T02:42:00;23.17;;;8.70;;
7348;SDS011;13010;-33.424;-70.614;2023-02-22T02:44:54;15.17;;;9.33;;
7348;SDS011;13010;-33.424;-70.614;2023-02-22T02:47:46;12.57;;;8.33;;
7348;SDS011;13010;-33.424;-70.614;2023-02-22T02:50:43;15.50;;;9.77;;
7348;SDS011;13010;-33.424;-70.614;2023-02-22T02:53:34;19.10;;;9.70;;
7348;SDS011;13010;-33.424;-70.614;2023-02-22T02:56:25;15.90;;;8.97;;
7348;SDS011;13010;-33.424;-70.614;2023-02-22T02:59:24;16.00;;;9.90;;
7348;SDS011;13010;-33.424;-70.614;2023-02-22T03:02:21;15.20;;;9.80;;
7348;SDS011;13010;-33.424;-70.614;2023-02-22T03:05:21;15.60;;;9.40;;
7348;SDS011;13010;-33.424;-70.614;2023-02-22T03:08:26;30.30;;;14.83;;
7348;SDS011;13010;-33.424;-70.614;2023-02-22T03:11:20;27.70;;;14.03;;
7348;SDS011;13010;-33.424;-70.614;2023-02-22T03:14:15;21.30;;;13.90;;
7348;SDS011;13010;-33.424;-70.614;2023-02-22T03:17:13;16.03;;;10.30;;
7348;SDS011;13010;-33.424;-70.614;2023-02-22T03:20:09;14.97;;;10.90;;
7348;SDS011;13010;-33.424;-70.614;2023-02-22T03:23:06;16.70;;;10.47;;
7348;SDS011;13010;-33.424;-70.614;2023-02-22T03:26:03;25.23;;;10.90;;
7348;SDS011;13010;-33.424;-70.614;2023-02-22T03:28:55;19.73;;;10.67;;
7348;SDS011;13010;-33.424;-70.614;2023-02-22T03:31:50;15.73;;;10.47;;
7348;SDS011;13010;-33.424;-70.614;2023-02-22T03:34:45;19.27;;;10.07;;
7348;SDS011;13010;-33.424;-70.614;2023-02-22T03:37:37;16.73;;;11.00;;
7348;SDS011;13010;-33.424;-70.614;2023-02-22T03:40:29;15.37;;;9.73;;
7348;SDS011;13010;-33.424;-70.614;2023-02-22T03:43:23;19.77;;;9.47;;
7348;SDS011;13010;-33.424;-70.614;2023-02-22T03:46:15;18.37;;;9.77;;
7348;SDS011;13010;-33.424;-70.614;2023-02-22T03:49:08;18.13;;;9.83;;
7348;SDS011;13010;-33.424;-70.614;2023-02-22T03:52:00;17.37;;;10.60;;
7348;SDS011;13010;-33.424;-70.614;2023-02-22T03:54:50;19.20;;;10.57;;
7348;SDS011;13010;-33.424;-70.614;2023-02-22T03:57:40;17.73;;;9.73;;
7348;SDS011;13010;-33.424;-70.614;2023-02-22T04:00:34;16.63;;;10.17;;
7348;SDS011;13010;-33.424;-70.614;2023-02-22T04:03:28;16.50;;;9.77;;
7348;SDS011;13010;-33.424;-70.614;2023-02-22T04:06:17;14.73;;;9.60;;
7348;SDS011;13010;-33.424;-70.614;2023-02-22T04:09:06;12.43;;;8.33;;
7348;SDS011;13010;-33.424;-70.614;2023-02-22T04:11:57;18.00;;;9.70;;
7348;SDS011;13010;-33.424;-70.614;2023-02-22T04:14:47;14.13;;;9.03;;
7348;SDS011;13010;-33.424;-70.614;2023-02-22T04:17:38;18.43;;;8.43;;
7348;SDS011;13010;-33.424;-70.614;2023-02-22T04:20:27;13.27;;;7.10;;
7348;SDS011;13010;-33.424;-70.614;2023-02-22T04:23:16;14.63;;;8.97;;
7348;SDS011;13010;-33.424;-70.614;2023-02-22T04:26:05;13.60;;;9.23;;
7348;SDS011;13010;-33.424;-70.614;2023-02-22T04:28:54;11.30;;;8.37;;
7348;SDS011;13010;-33.424;-70.614;2023-02-22T04:31:43;17.57;;;8.67;;
7348;SDS011;13010;-33.424;-70.614;2023-02-22T04:34:35;18.33;;;9.00;;
7348;SDS011;13010;-33.424;-70.614;2023-02-22T04:37:23;17.63;;;7.70;;
7348;SDS011;13010;-33.424;-70.614;2023-02-22T04:40:12;13.33;;;8.90;;
7348;SDS011;13010;-33.424;-70.614;2023-02-22T04:43:03;12.87;;;7.87;;
7348;SDS011;13010;-33.424;-70.614;2023-02-22T04:45:52;17.10;;;9.17;;
7348;SDS011;13010;-33.424;-70.614;2023-02-22T04:48:41;14.53;;;9.70;;
7348;SDS011;13010;-33.424;-70.614;2023-02-22T04:51:31;36.07;;;9.93;;
7348;SDS011;13010;-33.424;-70.614;2023-02-22T04:54:20;15.50;;;8.40;;
7348;SDS011;13010;-33.424;-70.614;2023-02-22T04:57:09;18.70;;;9.53;;
7348;SDS011;13010;-33.424;-70.614;2023-02-22T04:59:58;14.17;;;9.43;;
7348;SDS011;13010;-33.424;-70.614;2023-02-22T05:02:48;31.03;;;8.33;;
7348;SDS011;13010;-33.424;-70.614;2023-02-22T05:05:37;13.90;;;8.23;;
7348;SDS011;13010;-33.424;-70.614;2023-02-22T05:08:28;14.07;;;7.93;;
7348;SDS011;13010;-33.424;-70.614;2023-02-22T05:11:17;29.80;;;8.63;;
7348;SDS011;13010;-33.424;-70.614;2023-02-22T05:14:06;17.70;;;8.93;;
7348;SDS011;13010;-33.424;-70.614;2023-02-22T05:16:55;15.53;;;7.40;;
7348;SDS011;13010;-33.424;-70.614;2023-02-22T05:19:44;17.43;;;8.37;;
7348;SDS011;13010;-33.424;-70.614;2023-02-22T05:22:33;19.63;;;9.90;;
7348;SDS011;13010;-33.424;-70.614;2023-02-22T05:25:24;21.40;;;8.60;;
7348;SDS011;13010;-33.424;-70.614;2023-02-22T05:28:13;12.53;;;8.03;;
7348;SDS011;13010;-33.424;-70.614;2023-02-22T05:31:02;14.53;;;7.93;;
7348;SDS011;13010;-33.424;-70.614;2023-02-22T05:33:52;16.23;;;7.20;;
7348;SDS011;13010;-33.424;-70.614;2023-02-22T05:36:41;17.80;;;7.43;;
7348;SDS011;13010;-33.424;-70.614;2023-02-22T05:39:30;21.10;;;8.47;;
7348;SDS011;13010;-33.424;-70.614;2023-02-22T05:42:21;16.20;;;8.20;;
7348;SDS011;13010;-33.424;-70.614;2023-02-22T05:45:11;16.90;;;7.67;;
7348;SDS011;13010;-33.424;-70.614;2023-02-22T05:48:01;16.00;;;8.03;;
7348;SDS011;13010;-33.424;-70.614;2023-02-22T05:50:49;17.60;;;8.50;;
7348;SDS011;13010;-33.424;-70.614;2023-02-22T05:53:39;15.77;;;8.47;;
7348;SDS011;13010;-33.424;-70.614;2023-02-22T05:56:29;18.23;;;8.30;;
7348;SDS011;13010;-33.424;-70.614;2023-02-22T05:59:22;16.10;;;8.40;;
7348;SDS011;13010;-33.424;-70.614;2023-02-22T06:02:11;12.70;;;8.93;;
7348;SDS011;13010;-33.424;-70.614;2023-02-22T06:05:00;25.43;;;8.93;;
7348;SDS011;13010;-33.424;-70.614;2023-02-22T06:07:49;26.57;;;9.20;;
7348;SDS011;13010;-33.424;-70.614;2023-02-22T06:10:38;18.27;;;9.07;;
7348;SDS011;13010;-33.424;-70.614;2023-02-22T06:13:28;16.03;;;8.70;;
7348;SDS011;13010;-33.424;-70.614;2023-02-22T06:16:20;18.77;;;7.73;;
7348;SDS011;13010;-33.424;-70.614;2023-02-22T06:19:09;12.67;;;8.10;;
7348;SDS011;13010;-33.424;-70.614;2023-02-22T06:21:58;16.53;;;7.37;;
7348;SDS011;13010;-33.424;-70.614;2023-02-22T06:24:47;12.07;;;7.20;;
7348;SDS011;13010;-33.424;-70.614;2023-02-22T06:27:35;16.40;;;9.93;;
7348;SDS011;13010;-33.424;-70.614;2023-02-22T06:30:24;18.97;;;8.90;;
7348;SDS011;13010;-33.424;-70.614;2023-02-22T06:33:16;22.20;;;11.17;;
7348;SDS011;13010;-33.424;-70.614;2023-02-22T06:36:05;16.03;;;10.07;;
7348;SDS011;13010;-33.424;-70.614;2023-02-22T06:38:55;16.13;;;9.40;;
7348;SDS011;13010;-33.424;-70.614;2023-02-22T06:41:44;14.43;;;8.27;;
7348;SDS011;13010;-33.424;-70.614;2023-02-22T06:44:35;18.83;;;9.40;;
7348;SDS011;13010;-33.424;-70.614;2023-02-22T06:47:24;18.87;;;9.17;;
7348;SDS011;13010;-33.424;-70.614;2023-02-22T06:50:18;19.20;;;9.50;;
7348;SDS011;13010;-33.424;-70.614;2023-02-22T06:53:08;19.73;;;9.87;;
7348;SDS011;13010;-33.424;-70.614;2023-02-22T06:55:57;19.27;;;9.10;;
7348;SDS011;13010;-33.424;-70.614;2023-02-22T06:58:46;18.20;;;10.07;;
7348;SDS011;13010;-33.424;-70.614;2023-02-22T07:01:35;15.80;;;11.87;;
7348;SDS011;13010;-33.424;-70.614;2023-02-22T07:04:28;22.33;;;11.10;;
7348;SDS011;13010;-33.424;-70.614;2023-02-22T07:07:20;21.73;;;11.47;;
7348;SDS011;13010;-33.424;-70.614;2023-02-22T07:10:15;23.87;;;12.00;;
7348;SDS011;13010;-33.424;-70.614;2023-02-22T07:13:07;17.00;;;10.67;;
7348;SDS011;13010;-33.424;-70.614;2023-02-22T07:15:56;16.17;;;12.17;;
7348;SDS011;13010;-33.424;-70.614;2023-02-22T07:18:44;23.87;;;12.63;;
7348;SDS011;13010;-33.424;-70.614;2023-02-22T07:21:34;23.77;;;10.80;;
7348;SDS011;13010;-33.424;-70.614;2023-02-22T07:24:24;26.93;;;11.33;;
7348;SDS011;13010;-33.424;-70.614;2023-02-22T07:27:14;18.00;;;11.00;;
7348;SDS011;13010;-33.424;-70.614;2023-02-22T07:30:03;25.43;;;10.77;;
7348;SDS011;13010;-33.424;-70.614;2023-02-22T07:32:53;25.23;;;11.77;;
7348;SDS011;13010;-33.424;-70.614;2023-02-22T07:35:44;19.97;;;11.87;;
7348;SDS011;13010;-33.424;-70.614;2023-02-22T07:38:34;17.93;;;11.50;;
7348;SDS011;13010;-33.424;-70.614;2023-02-22T07:41:25;19.40;;;12.03;;
7348;SDS011;13010;-33.424;-70.614;2023-02-22T07:44:14;19.83;;;11.70;;
7348;SDS011;13010;-33.424;-70.614;2023-02-22T07:47:03;21.23;;;13.10;;
7348;SDS011;13010;-33.424;-70.614;2023-02-22T07:49:54;40.00;;;14.60;;
7348;SDS011;13010;-33.424;-70.614;2023-02-22T07:52:44;17.60;;;11.73;;
7348;SDS011;13010;-33.424;-70.614;2023-02-22T07:55:33;24.53;;;13.20;;
7348;SDS011;13010;-33.424;-70.614;2023-02-22T07:58:25;25.60;;;15.13;;
7348;SDS011;13010;-33.424;-70.614;2023-02-22T08:04:19;16.67;;;12.33;;
7348;SDS011;13010;-33.424;-70.614;2023-02-22T08:07:08;21.03;;;12.50;;
7348;SDS011;13010;-33.424;-70.614;2023-02-22T08:09:57;27.43;;;12.57;;
7348;SDS011;13010;-33.424;-70.614;2023-02-22T08:12:50;18.87;;;12.00;;
7348;SDS011;13010;-33.424;-70.614;2023-02-22T08:15:41;24.90;;;13.00;;
7348;SDS011;13010;-33.424;-70.614;2023-02-22T08:18:30;18.70;;;12.80;;
7348;SDS011;13010;-33.424;-70.614;2023-02-22T08:21:21;25.50;;;14.87;;
7348;SDS011;13010;-33.424;-70.614;2023-02-22T08:24:12;31.17;;;13.73;;
7348;SDS011;13010;-33.424;-70.614;2023-02-22T08:27:00;21.20;;;14.87;;
7348;SDS011;13010;-33.424;-70.614;2023-02-22T08:29:49;22.17;;;14.37;;
7348;SDS011;13010;-33.424;-70.614;2023-02-22T08:32:39;28.97;;;16.63;;
7348;SDS011;13010;-33.424;-70.614;2023-02-22T08:35:29;22.43;;;14.30;;
7348;SDS011;13010;-33.424;-70.614;2023-02-22T08:38:19;23.00;;;13.43;;
7348;SDS011;13010;-33.424;-70.614;2023-02-22T08:41:09;18.50;;;12.80;;
7348;SDS011;13010;-33.424;-70.614;2023-02-22T08:43:58;20.57;;;15.00;;
7348;SDS011;13010;-33.424;-70.614;2023-02-22T08:46:47;26.00;;;14.57;;
7348;SDS011;13010;-33.424;-70.614;2023-02-22T08:49:37;23.67;;;13.73;;
7348;SDS011;13010;-33.424;-70.614;2023-02-22T08:52:26;22.53;;;14.73;;
7348;SDS011;13010;-33.424;-70.614;2023-02-22T08:55:14;23.47;;;13.70;;
7348;SDS011;13010;-33.424;-70.614;2023-02-22T08:58:08;26.60;;;15.10;;
7348;SDS011;13010;-33.424;-70.614;2023-02-22T09:00:56;19.70;;;14.50;;
7348;SDS011;13010;-33.424;-70.614;2023-02-22T09:03:47;23.93;;;15.10;;
7348;SDS011;13010;-33.424;-70.614;2023-02-22T09:06:38;20.80;;;15.10;;
7348;SDS011;13010;-33.424;-70.614;2023-02-22T09:09:32;25.27;;;15.87;;
7348;SDS011;13010;-33.424;-70.614;2023-02-22T09:12:20;25.27;;;14.87;;
7348;SDS011;13010;-33.424;-70.614;2023-02-22T09:15:09;24.87;;;16.90;;
7348;SDS011;13010;-33.424;-70.614;2023-02-22T09:17:58;26.00;;;13.30;;
7348;SDS011;13010;-33.424;-70.614;2023-02-22T09:20:48;20.50;;;12.80;;
7348;SDS011;13010;-33.424;-70.614;2023-02-22T09:23:40;23.77;;;14.50;;
7348;SDS011;13010;-33.424;-70.614;2023-02-22T09:26:29;26.10;;;14.47;;
7348;SDS011;13010;-33.424;-70.614;2023-02-22T09:29:18;18.97;;;12.93;;
7348;SDS011;13010;-33.424;-70.614;2023-02-22T09:32:08;28.40;;;13.57;;
7348;SDS011;13010;-33.424;-70.614;2023-02-22T09:35:00;25.37;;;13.47;;
7348;SDS011;13010;-33.424;-70.614;2023-02-22T09:37:49;19.97;;;13.27;;
7348;SDS011;13010;-33.424;-70.614;2023-02-22T09:40:41;26.80;;;13.40;;
7348;SDS011;13010;-33.424;-70.614;2023-02-22T09:43:35;24.67;;;13.53;;
7348;SDS011;13010;-33.424;-70.614;2023-02-22T09:46:28;22.77;;;11.77;;
7348;SDS011;13010;-33.424;-70.614;2023-02-22T09:49:22;22.17;;;14.20;;
7348;SDS011;13010;-33.424;-70.614;2023-02-22T09:52:17;29.33;;;14.70;;
7348;SDS011;13010;-33.424;-70.614;2023-02-22T09:55:15;22.27;;;13.13;;
7348;SDS011;13010;-33.424;-70.614;2023-02-22T09:58:18;23.00;;;13.60;;
7348;SDS011;13010;-33.424;-70.614;2023-02-22T10:01:15;25.70;;;14.67;;
7348;SDS011;13010;-33.424;-70.614;2023-02-22T10:04:10;25.80;;;13.30;;
7348;SDS011;13010;-33.424;-70.614;2023-02-22T10:07:09;20.90;;;12.17;;
7348;SDS011;13010;-33.424;-70.614;2023-02-22T10:10:06;20.47;;;12.77;;
7348;SDS011;13010;-33.424;-70.614;2023-02-22T10:13:03;30.37;;;13.97;;
7348;SDS011;13010;-33.424;-70.614;2023-02-22T10:16:02;24.80;;;14.53;;
7348;SDS011;13010;-33.424;-70.614;2023-02-22T10:22:25;21.47;;;14.03;;
7348;SDS011;13010;-33.424;-70.614;2023-02-22T10:25:32;22.30;;;14.50;;
7348;SDS011;13010;-33.424;-70.614;2023-02-22T10:28:24;35.47;;;14.53;;
7348;SDS011;13010;-33.424;-70.614;2023-02-22T10:31:21;20.80;;;13.90;;
7348;SDS011;13010;-33.424;-70.614;2023-02-22T10:34:13;46.90;;;18.70;;
7348;SDS011;13010;-33.424;-70.614;2023-02-22T10:37:14;30.77;;;12.70;;
7348;SDS011;13010;-33.424;-70.614;2023-02-22T10:40:11;19.30;;;13.97;;
7348;SDS011;13010;-33.424;-70.614;2023-02-22T10:43:04;23.87;;;14.23;;
7348;SDS011;13010;-33.424;-70.614;2023-02-22T10:45:56;22.90;;;13.87;;
7348;SDS011;13010;-33.424;-70.614;2023-02-22T10:48:49;40.37;;;16.20;;
7348;SDS011;13010;-33.424;-70.614;2023-02-22T10:51:41;30.10;;;15.63;;
7348;SDS011;13010;-33.424;-70.614;2023-02-22T10:54:31;20.40;;;12.60;;
7348;SDS011;13010;-33.424;-70.614;2023-02-22T10:57:24;22.10;;;16.87;;
7348;SDS011;13010;-33.424;-70.614;2023-02-22T11:00:17;36.93;;;15.73;;
7348;SDS011;13010;-33.424;-70.614;2023-02-22T11:03:15;21.50;;;13.03;;
7348;SDS011;13010;-33.424;-70.614;2023-02-22T11:06:18;23.63;;;11.07;;
7348;SDS011;13010;-33.424;-70.614;2023-02-22T11:09:11;23.40;;;13.97;;
7348;SDS011;13010;-33.424;-70.614;2023-02-22T11:12:10;18.00;;;13.03;;
7348;SDS011;13010;-33.424;-70.614;2023-02-22T11:18:26;36.00;;;14.63;;
7348;SDS011;13010;-33.424;-70.614;2023-02-22T11:21:22;33.03;;;15.37;;
7348;SDS011;13010;-33.424;-70.614;2023-02-22T11:24:14;25.43;;;12.60;;
7348;SDS011;13010;-33.424;-70.614;2023-02-22T11:27:04;24.17;;;10.80;;
7348;SDS011;13010;-33.424;-70.614;2023-02-22T11:29:53;22.70;;;13.07;;
7348;SDS011;13010;-33.424;-70.614;2023-02-22T11:32:45;26.13;;;11.00;;
7348;SDS011;13010;-33.424;-70.614;2023-02-22T11:35:37;539.87;;;56.73;;
7348;SDS011;13010;-33.424;-70.614;2023-02-22T11:38:38;190.07;;;27.90;;
7348;SDS011;13010;-33.424;-70.614;2023-02-22T11:41:39;75.23;;;18.17;;
7348;SDS011;13010;-33.424;-70.614;2023-02-22T11:44:28;22.33;;;10.90;;
7348;SDS011;13010;-33.424;-70.614;2023-02-22T11:47:18;20.80;;;11.27;;
7348;SDS011;13010;-33.424;-70.614;2023-02-22T11:50:09;33.50;;;13.07;;
7348;SDS011;13010;-33.424;-70.614;2023-02-22T11:53:20;16.63;;;9.17;;
7348;SDS011;13010;-33.424;-70.614;2023-02-22T11:56:33;20.47;;;10.53;;
7348;SDS011;13010;-33.424;-70.614;2023-02-22T11:59:27;22.87;;;10.10;;
7348;SDS011;13010;-33.424;-70.614;2023-02-22T12:02:25;17.58;;;10.27;;
7348;SDS011;13010;-33.424;-70.614;2023-02-22T12:05:24;17.43;;;9.87;;
7348;SDS011;13010;-33.424;-70.614;2023-02-22T12:08:26;18.40;;;9.30;;
7348;SDS011;13010;-33.424;-70.614;2023-02-22T12:11:25;22.93;;;10.70;;
7348;SDS011;13010;-33.424;-70.614;2023-02-22T12:14:23;24.80;;;9.53;;
7348;SDS011;13010;-33.424;-70.614;2023-02-22T12:17:20;15.33;;;9.10;;
7348;SDS011;13010;-33.424;-70.614;2023-02-22T12:20:17;17.03;;;8.60;;
7348;SDS011;13010;-33.424;-70.614;2023-02-22T12:23:13;15.27;;;9.40;;
7348;SDS011;13010;-33.424;-70.614;2023-02-22T12:26:06;17.80;;;8.83;;
7348;SDS011;13010;-33.424;-70.614;2023-02-22T12:29:00;12.43;;;8.50;;
7348;SDS011;13010;-33.424;-70.614;2023-02-22T12:31:56;14.00;;;8.53;;
7348;SDS011;13010;-33.424;-70.614;2023-02-22T12:34:51;15.80;;;8.20;;
7348;SDS011;13010;-33.424;-70.614;2023-02-22T12:37:48;22.80;;;10.60;;
7348;SDS011;13010;-33.424;-70.614;2023-02-22T12:40:46;13.53;;;7.43;;
7348;SDS011;13010;-33.424;-70.614;2023-02-22T12:43:42;9.73;;;7.20;;
7348;SDS011;13010;-33.424;-70.614;2023-02-22T12:46:37;19.33;;;8.83;;
7348;SDS011;13010;-33.424;-70.614;2023-02-22T12:49:32;14.70;;;8.43;;
7348;SDS011;13010;-33.424;-70.614;2023-02-22T12:52:31;23.57;;;7.67;;
7348;SDS011;13010;-33.424;-70.614;2023-02-22T12:55:30;14.73;;;9.10;;
7348;SDS011;13010;-33.424;-70.614;2023-02-22T12:58:24;16.20;;;6.87;;
7348;SDS011;13010;-33.424;-70.614;2023-02-22T13:01:16;18.30;;;9.33;;
7348;SDS011;13010;-33.424;-70.614;2023-02-22T13:04:08;19.20;;;9.20;;
7348;SDS011;13010;-33.424;-70.614;2023-02-22T13:07:02;14.43;;;7.50;;
7348;SDS011;13010;-33.424;-70.614;2023-02-22T13:10:12;16.23;;;9.53;;
7348;SDS011;13010;-33.424;-70.614;2023-02-22T13:13:32;14.47;;;8.00;;
7348;SDS011;13010;-33.424;-70.614;2023-02-22T13:16:34;30.57;;;10.13;;
7348;SDS011;13010;-33.424;-70.614;2023-02-22T13:19:38;17.30;;;9.30;;
7348;SDS011;13010;-33.424;-70.614;2023-02-22T13:22:36;15.97;;;9.67;;
7348;SDS011;13010;-33.424;-70.614;2023-02-22T13:25:32;26.33;;;11.03;;
7348;SDS011;13010;-33.424;-70.614;2023-02-22T13:28:27;12.17;;;9.27;;
7348;SDS011;13010;-33.424;-70.614;2023-02-22T13:31:25;12.90;;;9.77;;
7348;SDS011;13010;-33.424;-70.614;2023-02-22T13:37:54;13.30;;;11.10;;
7348;SDS011;13010;-33.424;-70.614;2023-02-22T13:41:14;15.00;;;11.00;;
7348;SDS011;13010;-33.424;-70.614;2023-02-22T13:44:32;15.40;;;10.77;;
7348;SDS011;13010;-33.424;-70.614;2023-02-22T13:47:49;17.07;;;10.80;;
7348;SDS011;13010;-33.424;-70.614;2023-02-22T13:51:31;21.80;;;10.40;;
7348;SDS011;13010;-33.424;-70.614;2023-02-22T13:54:41;14.03;;;11.30;;
7348;SDS011;13010;-33.424;-70.614;2023-02-22T13:57:33;18.80;;;11.57;;
7348;SDS011;13010;-33.424;-70.614;2023-02-22T14:03:34;14.70;;;9.93;;
7348;SDS011;13010;-33.424;-70.614;2023-02-22T14:06:35;16.00;;;10.60;;
7348;SDS011;13010;-33.424;-70.614;2023-02-22T14:12:47;23.60;;;9.57;;
7348;SDS011;13010;-33.424;-70.614;2023-02-22T14:15:36;20.50;;;11.17;;
7348;SDS011;13010;-33.424;-70.614;2023-02-22T14:19:12;31.50;;;11.77;;
7348;SDS011;13010;-33.424;-70.614;2023-02-22T14:22:04;15.00;;;10.00;;
7348;SDS011;13010;-33.424;-70.614;2023-02-22T14:24:58;17.23;;;9.60;;
7348;SDS011;13010;-33.424;-70.614;2023-02-22T14:27:47;13.63;;;8.90;;
7348;SDS011;13010;-33.424;-70.614;2023-02-22T14:30:38;14.13;;;9.00;;
7348;SDS011;13010;-33.424;-70.614;2023-02-22T14:36:40;16.87;;;9.27;;
7348;SDS011;13010;-33.424;-70.614;2023-02-22T14:39:34;12.37;;;8.40;;
7348;SDS011;13010;-33.424;-70.614;2023-02-22T14:42:30;16.73;;;7.37;;
7348;SDS011;13010;-33.424;-70.614;2023-02-22T14:45:22;17.37;;;7.20;;
7348;SDS011;13010;-33.424;-70.614;2023-02-22T14:48:21;10.17;;;6.73;;
7348;SDS011;13010;-33.424;-70.614;2023-02-22T14:51:24;11.03;;;7.17;;
7348;SDS011;13010;-33.424;-70.614;2023-02-22T14:54:20;14.10;;;8.27;;
7348;SDS011;13010;-33.424;-70.614;2023-02-22T14:57:22;12.90;;;8.77;;
7348;SDS011;13010;-33.424;-70.614;2023-02-22T15:00:18;18.87;;;9.23;;
7348;SDS011;13010;-33.424;-70.614;2023-02-22T15:03:18;10.03;;;7.93;;
7348;SDS011;13010;-33.424;-70.614;2023-02-22T15:06:17;11.77;;;7.40;;
7348;SDS011;13010;-33.424;-70.614;2023-02-22T15:09:11;13.87;;;6.93;;
7348;SDS011;13010;-33.424;-70.614;2023-02-22T15:12:11;7.10;;;6.30;;
7348;SDS011;13010;-33.424;-70.614;2023-02-22T15:15:11;14.40;;;8.43;;
7348;SDS011;13010;-33.424;-70.614;2023-02-22T15:18:11;14.87;;;8.33;;
7348;SDS011;13010;-33.424;-70.614;2023-02-22T15:21:08;9.23;;;7.30;;
7348;SDS011;13010;-33.424;-70.614;2023-02-22T15:24:00;9.63;;;7.60;;
7348;SDS011;13010;-33.424;-70.614;2023-02-22T15:26:51;15.83;;;8.50;;
7348;SDS011;13010;-33.424;-70.614;2023-02-22T15:29:41;16.73;;;10.43;;
7348;SDS011;13010;-33.424;-70.614;2023-02-22T15:32:32;28.40;;;11.23;;
7348;SDS011;13010;-33.424;-70.614;2023-02-22T15:35:27;11.77;;;9.60;;
7348;SDS011;13010;-33.424;-70.614;2023-02-22T15:38:25;12.50;;;8.50;;
7348;SDS011;13010;-33.424;-70.614;2023-02-22T15:41:19;13.97;;;8.60;;
7348;SDS011;13010;-33.424;-70.614;2023-02-22T15:44:13;10.33;;;8.67;;
7348;SDS011;13010;-33.424;-70.614;2023-02-22T15:47:02;11.90;;;7.93;;
7348;SDS011;13010;-33.424;-70.614;2023-02-22T15:53:07;13.53;;;9.97;;
7348;SDS011;13010;-33.424;-70.614;2023-02-22T15:56:13;18.70;;;8.63;;
7348;SDS011;13010;-33.424;-70.614;2023-02-22T15:59:05;27.63;;;9.90;;
7348;SDS011;13010;-33.424;-70.614;2023-02-22T16:01:58;15.50;;;8.63;;
7348;SDS011;13010;-33.424;-70.614;2023-02-22T16:04:47;11.13;;;9.70;;
7348;SDS011;13010;-33.424;-70.614;2023-02-22T16:07:43;12.33;;;8.73;;
7348;SDS011;13010;-33.424;-70.614;2023-02-22T16:10:36;12.77;;;8.97;;
7348;SDS011;13010;-33.424;-70.614;2023-02-22T16:13:27;10.03;;;8.73;;
7348;SDS011;13010;-33.424;-70.614;2023-02-22T16:16:23;14.43;;;10.17;;
7348;SDS011;13010;-33.424;-70.614;2023-02-22T16:19:28;13.43;;;10.50;;
7348;SDS011;13010;-33.424;-70.614;2023-02-22T16:22:24;18.63;;;10.90;;
7348;SDS011;13010;-33.424;-70.614;2023-02-22T16:25:24;60.17;;;16.20;;
7348;SDS011;13010;-33.424;-70.614;2023-02-22T16:28:26;15.17;;;9.93;;
7348;SDS011;13010;-33.424;-70.614;2023-02-22T16:31:19;15.43;;;10.63;;
7348;SDS011;13010;-33.424;-70.614;2023-02-22T16:34:09;11.00;;;9.27;;
7348;SDS011;13010;-33.424;-70.614;2023-02-22T16:37:00;11.23;;;9.83;;
7348;SDS011;13010;-33.424;-70.614;2023-02-22T16:39:50;11.90;;;10.33;;
7348;SDS011;13010;-33.424;-70.614;2023-02-22T16:42:40;32.03;;;11.80;;
7348;SDS011;13010;-33.424;-70.614;2023-02-22T16:45:31;12.53;;;11.03;;
7348;SDS011;13010;-33.424;-70.614;2023-02-22T16:48:22;13.03;;;10.33;;
7348;SDS011;13010;-33.424;-70.614;2023-02-22T16:51:17;17.80;;;11.57;;
7348;SDS011;13010;-33.424;-70.614;2023-02-22T16:54:09;17.70;;;10.97;;
7348;SDS011;13010;-33.424;-70.614;2023-02-22T16:56:59;14.47;;;10.87;;
7348;SDS011;13010;-33.424;-70.614;2023-02-22T16:59:48;16.53;;;12.03;;
7348;SDS011;13010;-33.424;-70.614;2023-02-22T17:02:41;13.60;;;11.70;;
7348;SDS011;13010;-33.424;-70.614;2023-02-22T17:05:30;18.03;;;11.73;;
7348;SDS011;13010;-33.424;-70.614;2023-02-22T17:08:21;14.23;;;11.23;;